Hlavní strana
METAR-TAF:

METAR-TAF

Letiště :

Heliport

Værøy, Norsko

zeměpisná šířka: 67-39-16N, zeměpisná délka: 12-43-37E, výška: 5 m

Aktuální stav počasí

Zpráva byla vytvořena před 3 hodinami a 11 minutami, v 06:50 UTC
Jihozápadní vítr 22 kt
Teplota 7°C
Vlhkost vzduchu 93%
Tlak 992 hPa
Viditelnost 10 km a více
Polojasno ve výšce 800 ft
Oblačno až skoro zataženo ve výšce 2400 ft

METAR: ENVR 250650Z 23022KT 9999 SCT008 BKN024 07/06 Q0992

Čas: 11:01 (10:01 UTC)


TAF: chybějící

Stav a předpovědi počasí z více než 4 000 letišť (zprávy METAR a TAF).

Červené a žluté tečky na mapě představují dostupné meteorologické stanice.

Když kurzor umístíte na tečku, zobrazí se název stanice.

Pak kliknutím zobrazíte stav a předpověď počasí.

Chcete-li změnit mapu, kliknutím na zelené tlačítko se znaménkem +mapu přiblížíte, kliknutím na zelené tlačítko se znaménkem – mapu oddálíte a kliknutím na zelené šipky přejdete na sousední mapy.


METAR-TAF: